Time;durP1;ratioP1;P1;durP2;ratioP2;P2;SDS_P1;SDS_P2;PMS_P1;PMS_P2;Temp;Humidity;BMP_temperature;BMP_pressure;BME280_temperature;BME280_humidity;BME280_pressure;Samples;Min_cycle;Max_cycle;Signal;HPM_P1;HPM_P2
2021/05/15 00:01:57;;;;;;;0.70;0.60;;;10.20;99.90;;;10.58;100.00;-20970.03;5052776;28;20458;-73
2021/05/15 00:04:23;;;;;;;0.70;0.60;;;10.20;99.90;;;10.63;100.00;-20971.41;5052099;28;20426;-73
2021/05/15 00:06:50;;;;;;;0.70;0.70;;;10.20;99.90;;;10.63;100.00;-20971.41;5052205;28;21039;-73
2021/05/15 00:09:17;;;;;;;0.70;0.60;;;10.20;99.90;;;10.57;100.00;-20969.75;5053333;28;20469;-73
2021/05/15 00:11:43;;;;;;;0.70;0.60;;;10.20;99.90;;;10.52;100.00;-20968.25;5085098;28;20485;-73
2021/05/15 00:14:10;;;;;;;0.70;0.60;;;10.20;99.90;;;10.43;100.00;-20965.75;5053199;28;20545;-73
2021/05/15 00:16:36;;;;;;;0.70;0.60;;;10.00;99.90;;;10.38;100.00;-20964.66;5085392;28;20491;-73
2021/05/15 00:19:04;;;;;;;0.70;0.60;;;10.00;99.90;;;10.34;100.00;-20963.41;5048123;28;20450;-73
2021/05/15 00:21:31;;;;;;;0.70;0.60;;;9.90;99.90;;;10.34;100.00;-20963.41;5040152;28;20489;-72
2021/05/15 00:23:57;;;;;;;0.70;0.53;;;9.90;99.90;;;10.25;100.00;-20961.03;5052010;28;20561;-73
2021/05/15 00:26:26;;;;;;;0.70;0.70;;;9.90;99.90;;;10.18;100.00;-20958.97;5052973;28;20477;-73
2021/05/15 00:28:52;;;;;;;0.70;0.60;;;9.80;99.90;;;10.23;100.00;-20960.34;5051306;28;20457;-73
2021/05/15 00:31:19;;;;;;;0.70;0.60;;;9.80;99.90;;;10.24;100.00;-20960.75;5084826;28;20503;-73
2021/05/15 00:33:46;;;;;;;0.70;0.60;;;9.80;99.90;;;10.20;100.00;-20959.50;5053044;28;20408;-73
2021/05/15 00:36:13;;;;;;;0.70;0.60;;;9.80;99.90;;;10.16;100.00;-20958.53;5050901;28;20453;-73
2021/05/15 00:38:41;;;;;;;0.70;0.60;;;9.80;99.90;;;10.22;100.00;-20960.06;5051182;28;21119;-73
2021/05/15 00:41:08;;;;;;;0.70;0.60;;;9.80;99.90;;;10.15;100.00;-20958.28;5052257;28;20435;-73
2021/05/15 00:43:34;;;;;;;0.80;0.70;;;9.80;99.90;;;10.06;100.00;-20955.91;5051196;28;20837;-73
2021/05/15 00:46:01;;;;;;;0.70;0.60;;;9.70;99.90;;;10.03;100.00;-20955.09;5053906;28;20552;-73
2021/05/15 00:48:27;;;;;;;0.70;0.57;;;9.60;99.90;;;10.04;100.00;-20955.22;5056574;28;20430;-72
2021/05/15 00:50:54;;;;;;;0.70;0.50;;;9.70;99.90;;;9.99;100.00;-20953.84;5056336;28;20425;-72
2021/05/15 00:53:23;;;;;;;0.70;0.60;;;9.60;99.90;;;10.00;100.00;-20954.13;5055521;28;20476;-73
2021/05/15 00:55:49;;;;;;;0.70;0.60;;;9.70;99.90;;;9.94;100.00;-20952.59;5038468;28;20444;-73
2021/05/15 00:58:16;;;;;;;0.70;0.60;;;9.60;99.90;;;9.96;100.00;-20953.16;5056576;28;20515;-73
2021/05/15 01:00:43;;;;;;;0.70;0.60;;;9.60;99.90;;;9.96;100.00;-20953.00;5055299;28;20978;-75
2021/05/15 01:03:10;;;;;;;0.70;0.50;;;9.50;99.90;;;9.88;100.00;-20950.94;5056409;28;20670;-74
2021/05/15 01:05:36;;;;;;;0.70;0.60;;;9.50;99.90;;;9.88;100.00;-20951.06;5055084;28;20458;-73
2021/05/15 01:08:04;;;;;;;0.70;0.60;;;9.50;99.90;;;9.91;100.00;-20951.78;5056210;28;20448;-73
2021/05/15 01:10:32;;;;;;;0.70;0.60;;;9.50;99.90;;;9.85;100.00;-20950.09;5055236;28;20424;-73
2021/05/15 01:12:58;;;;;;;0.70;0.60;;;9.40;99.90;;;9.84;100.00;-20949.81;5056337;28;20471;-73
2021/05/15 01:15:26;;;;;;;0.70;0.53;;;9.40;99.90;;;10.03;100.00;-20954.94;5088502;28;20522;-73
2021/05/15 01:17:56;;;;;;;0.70;0.60;;;9.50;99.90;;;10.18;100.00;-20959.09;5086944;28;20445;-73
2021/05/15 01:20:24;;;;;;;0.70;0.60;;;9.70;99.90;;;10.23;100.00;-20960.34;5056264;28;20519;-73
2021/05/15 01:22:54;;;;;;;0.70;0.60;;;9.80;99.90;;;10.23;100.00;-20960.34;5054540;28;20503;-73
2021/05/15 01:25:21;;;;;;;0.70;0.67;;;9.80;99.90;;;10.25;100.00;-20960.91;5054622;28;20471;-72
2021/05/15 01:27:48;;;;;;;0.70;0.60;;;9.80;99.90;;;10.21;100.00;-20959.78;5038648;28;20506;-73
2021/05/15 01:30:17;;;;;;;0.70;0.50;;;9.70;99.90;;;10.22;100.00;-20960.06;5038071;28;20772;-73
2021/05/15 01:32:44;;;;;;;0.70;0.60;;;9.70;99.90;;;10.22;100.00;-20960.06;5056096;28;20419;-73
2021/05/15 01:35:14;;;;;;;0.70;0.50;;;9.80;99.90;;;10.20;100.00;-20959.50;5055976;28;20436;-72
2021/05/15 01:37:41;;;;;;;0.70;0.60;;;9.70;99.90;;;10.14;100.00;-20958.00;5037642;28;20491;-73
2021/05/15 01:40:10;;;;;;;0.73;0.70;;;9.70;99.90;;;10.07;100.00;-20956.19;5054680;28;20435;-73
2021/05/15 01:42:37;;;;;;;0.70;0.60;;;9.60;99.90;;;10.06;100.00;-20955.91;5055401;28;20450;-72
2021/05/15 01:45:26;;;;;;;0.70;0.60;;;9.60;99.90;;;10.02;100.00;-20954.69;5037159;28;21068;-72
2021/05/15 01:47:53;;;;;;;0.70;0.70;;;9.60;99.90;;;10.04;100.00;-20955.22;5053991;28;20437;-72
2021/05/15 01:50:20;;;;;;;0.70;0.60;;;9.60;99.90;;;10.03;100.00;-20900.53;5055557;28;20424;-73
2021/05/15 01:52:46;;;;;;;0.70;0.60;;;9.60;99.90;;;10.04;100.00;-20938.47;5053703;28;20965;-74
2021/05/15 01:55:21;;;;;;;0.70;0.60;;;9.50;99.90;;;10.01;100.00;-20867.59;5053288;28;20436;-72
2021/05/15 01:57:48;;;;;;;0.70;0.60;;;9.50;99.90;;;10.04;100.00;-20668.09;5071066;28;20456;-73
2021/05/15 02:00:16;;;;;;;0.70;0.60;;;9.60;99.90;;;9.91;100.00;-20574.63;5054840;28;20401;-73
2021/05/15 02:02:43;;;;;;;0.70;0.60;;;9.50;99.90;;;9.87;100.00;-20523.63;5055061;28;20490;-73
2021/05/15 02:05:11;;;;;;;0.70;0.60;;;9.50;99.90;;;9.79;100.00;-20546.34;5053525;28;20460;-73
2021/05/15 02:07:38;;;;;;;0.70;0.60;;;9.40;99.90;;;9.71;100.00;-20581.84;5055070;28;20484;-72
2021/05/15 02:10:06;;;;;;;0.70;0.60;;;9.30;99.90;;;9.66;100.00;-20613.13;5055636;28;20436;-72
2021/05/15 02:12:34;;;;;;;0.70;0.60;;;9.20;99.90;;;9.71;100.00;-20599.22;5087633;28;20428;-72
2021/05/15 02:15:01;;;;;;;0.70;0.60;;;9.30;99.90;;;9.74;100.00;-20590.03;5086937;28;20986;-73
2021/05/15 02:17:27;;;;;;;0.70;0.50;;;9.30;99.90;;;9.79;100.00;-20596.38;5055432;28;20445;-72
2021/05/15 02:19:53;;;;;;;0.70;0.60;;;9.30;99.90;;;9.86;100.00;-20555.75;5054399;28;20451;-72
2021/05/15 02:22:19;;;;;;;0.70;0.60;;;9.40;99.90;;;9.88;100.00;-20553.78;5054100;28;20850;-73
2021/05/15 02:24:46;;;;;;;0.70;0.50;;;9.40;99.90;;;9.97;100.00;-20396.06;5054834;28;20436;-73
2021/05/15 02:27:12;;;;;;;0.70;0.60;;;9.50;99.90;;;10.07;100.00;-20258.59;5054980;28;20440;-73
2021/05/15 02:29:39;;;;;;;0.70;0.60;;;9.60;99.90;;;10.14;100.00;-20155.31;5086074;28;20464;-73
2021/05/15 02:32:07;;;;;;;0.70;0.60;;;9.60;99.90;;;10.27;100.00;-19833.13;5052140;28;20834;-73
2021/05/15 02:34:33;;;;;;;0.70;0.60;;;9.70;99.90;;;10.33;100.00;-19453.88;5054083;28;20452;-73
2021/05/15 02:36:59;;;;;;;0.70;0.57;;;9.80;99.90;;;10.29;100.00;-19119.78;5054924;28;20482;-73
2021/05/15 02:39:25;;;;;;;0.70;0.60;;;9.80;99.90;;;10.29;100.00;-18721.63;5054736;28;20457;-73
2021/05/15 02:41:52;;;;;;;0.70;0.60;;;9.80;99.90;;;10.34;100.00;-18357.06;5054718;28;20439;-73
2021/05/15 02:44:18;;;;;;;0.70;0.60;;;9.80;99.90;;;10.34;100.00;-17996.16;5054155;28;20502;-73
2021/05/15 02:46:45;;;;;;;0.70;0.60;;;9.80;99.90;;;10.37;100.00;-17470.69;5054241;28;20949;-72
2021/05/15 02:49:11;;;;;;;0.70;0.63;;;9.80;99.90;;;10.36;100.00;-17006.69;5054451;28;20430;-73
2021/05/15 02:51:37;;;;;;;0.70;0.60;;;9.80;99.90;;;10.32;100.00;-16537.09;5053916;28;20860;-73
2021/05/15 02:54:04;;;;;;;0.70;0.60;;;9.80;99.90;;;10.31;100.00;-16085.66;5053407;28;20493;-72
2021/05/15 02:56:30;;;;;;;0.70;0.60;;;9.90;99.90;;;10.29;100.00;-15734.28;5054452;28;20434;-72
2021/05/15 02:58:57;;;;;;;0.70;0.60;;;9.80;99.90;;;10.32;100.00;-15281.00;5053171;28;20432;-71
2021/05/15 03:01:23;;;;;;;0.70;0.60;;;9.80;99.90;;;10.45;100.00;-14854.44;5053576;28;20455;-72
2021/05/15 03:03:50;;;;;;;0.70;0.60;;;9.90;99.90;;;10.46;100.00;-14320.16;5054773;28;20470;-72
2021/05/15 03:06:17;;;;;;;0.70;0.60;;;9.90;99.90;;;10.49;100.00;-13859.03;5054128;28;20546;-72
2021/05/15 03:08:44;;;;;;;0.70;0.60;;;10.00;99.90;;;10.51;100.00;-13344.84;5053335;28;20962;-73
2021/05/15 03:11:10;;;;;;;0.70;0.70;;;10.00;99.90;;;10.54;100.00;-12991.38;5054338;28;20909;-73
2021/05/15 03:13:37;;;;;;;0.70;0.60;;;10.00;99.90;;;10.55;100.00;-12602.31;5054050;28;20899;-73
2021/05/15 03:16:04;;;;;;;0.70;0.67;;;10.10;99.90;;;10.64;100.00;-12206.84;5054084;28;20414;-73
2021/05/15 03:18:31;;;;;;;0.70;0.60;;;10.10;99.90;;;10.67;100.00;-11770.16;5053493;28;20454;-73
2021/05/15 03:20:58;;;;;;;0.70;0.60;;;10.10;99.90;;;10.76;100.00;-11399.41;5053812;28;20988;-72
2021/05/15 03:23:25;;;;;;;0.70;0.60;;;10.20;99.90;;;10.85;100.00;-11008.53;5052140;28;20814;-73
2021/05/15 03:25:51;;;;;;;0.70;0.50;;;10.20;99.90;;;10.78;100.00;-11032.84;5053895;28;20474;-73
2021/05/15 03:28:18;;;;;;;0.70;0.60;;;10.20;99.90;;;10.74;100.00;-11142.91;5053865;28;20969;-73
2021/05/15 03:30:44;;;;;;;0.70;0.60;;;10.20;99.90;;;10.74;100.00;-11210.75;5052156;28;20545;-73
2021/05/15 03:33:11;;;;;;;0.70;0.60;;;10.20;99.90;;;10.74;100.00;-11351.44;5053267;28;20486;-73
2021/05/15 03:35:37;;;;;;;0.70;0.50;;;10.20;99.90;;;10.82;100.00;-11309.66;5054796;28;20448;-73
2021/05/15 03:38:05;;;;;;;0.70;0.60;;;10.20;99.90;;;10.95;100.00;-11617.81;5085845;28;20459;-72
2021/05/15 03:40:32;;;;;;;0.70;0.60;;;10.30;99.90;;;10.96;100.00;-11979.81;5052559;28;20427;-73
2021/05/15 03:42:58;;;;;;;0.70;0.60;;;10.30;99.90;;;11.00;100.00;-12889.91;5053350;28;20451;-73
2021/05/15 03:45:25;;;;;;;0.70;0.60;;;10.40;99.90;;;11.01;100.00;-13447.75;5053789;28;20799;-73
2021/05/15 03:47:52;;;;;;;0.70;0.60;;;10.40;99.90;;;10.95;100.00;-14325.72;5053356;28;20441;-71
2021/05/15 03:50:21;;;;;;;0.70;0.60;;;10.30;99.90;;;11.12;100.00;-15084.56;5052652;28;20443;-72
2021/05/15 03:52:48;;;;;;;0.70;0.60;;;10.40;99.90;;;11.17;100.00;-16333.16;5052361;28;20466;-72
2021/05/15 03:55:17;;;;;;;0.70;0.60;;;10.50;99.90;;;11.17;100.00;-17693.47;5051616;28;20441;-72
2021/05/15 03:57:43;;;;;;;0.70;0.70;;;10.50;99.90;;;11.18;100.00;-18747.41;5053023;28;20442;-73
2021/05/15 04:00:11;;;;;;;0.70;0.60;;;10.50;99.90;;;11.25;100.00;-19747.41;5053397;28;20422;-71
2021/05/15 04:02:38;;;;;;;0.70;0.60;;;10.50;99.90;;;11.24;100.00;-20369.22;5053490;28;20474;-72
2021/05/15 04:05:06;;;;;;;0.70;0.60;;;10.50;99.90;;;11.00;100.00;-20518.22;5052548;28;20473;-72
2021/05/15 04:07:32;;;;;;;0.70;0.60;;;10.40;99.90;;;10.78;100.00;-19870.97;5053229;28;20766;-73
2021/05/15 04:09:58;;;;;;;0.70;0.60;;;10.30;99.90;;;10.60;100.00;-18751.50;5053015;28;20492;-73
2021/05/15 04:12:33;;;;;;;0.70;0.60;;;10.10;99.90;;;10.53;100.00;-17351.25;5052202;28;20977;-73
2021/05/15 04:15:08;;;;;;;0.70;0.60;;;10.10;99.90;;;10.44;100.00;-15486.34;5053745;28;20406;-73
2021/05/15 04:17:34;;;;;;;0.70;0.60;;;10.00;99.90;;;10.38;100.00;-13764.44;5052163;28;20504;-73
2021/05/15 04:20:01;;;;;;;0.70;0.60;;;10.00;99.90;;;10.38;100.00;-12223.47;5052831;28;20530;-73
2021/05/15 04:22:28;;;;;;;0.70;0.60;;;9.90;99.90;;;10.38;100.00;-11073.56;5057253;28;20590;-73
2021/05/15 04:24:54;;;;;;;0.70;0.60;;;9.90;99.90;;;10.43;100.00;-10114.59;5087416;28;20597;-73
2021/05/15 04:27:22;;;;;;;0.70;0.60;;;10.00;99.90;;;10.44;100.00;-9438.88;5056864;28;20439;-73
2021/05/15 04:29:49;;;;;;;0.70;0.60;;;10.00;99.90;;;10.50;100.00;-9416.78;5055449;28;20617;-73
2021/05/15 04:32:15;;;;;;;0.70;0.60;;;10.00;99.90;;;10.59;100.00;-9098.38;5057268;28;20458;-75
2021/05/15 04:34:42;;;;;;;0.70;0.60;;;10.10;99.90;;;10.61;100.00;-8703.88;5056885;28;21044;-74
2021/05/15 04:37:08;;;;;;;0.70;0.60;;;10.10;99.90;;;10.60;100.00;-8666.06;5055867;28;20534;-75
2021/05/15 04:39:34;;;;;;;0.70;0.50;;;10.10;99.90;;;10.68;100.00;-8699.31;5055751;28;20972;-75
2021/05/15 04:42:01;;;;;;;0.70;0.60;;;10.10;99.90;;;10.63;100.00;-9121.31;5071376;28;20546;-75
2021/05/15 04:44:28;;;;;;;0.70;0.60;;;10.10;99.90;;;10.65;100.00;-9654.34;5089443;28;20451;-75
2021/05/15 04:46:55;;;;;;;0.70;0.60;;;10.10;99.90;;;10.68;100.00;-10446.25;5056332;28;20470;-76
2021/05/15 04:49:22;;;;;;;0.70;0.60;;;10.20;99.90;;;10.69;100.00;-11127.31;5056478;28;20954;-76
2021/05/15 04:51:49;;;;;;;0.70;0.70;;;10.20;99.90;;;10.72;100.00;-11609.97;5055269;28;20466;-76
2021/05/15 04:54:15;;;;;;;0.70;0.60;;;10.20;99.90;;;10.74;100.00;-12368.88;5055753;28;20553;-76
2021/05/15 04:56:41;;;;;;;0.70;0.50;;;10.10;99.90;;;10.72;100.00;-12825.59;5056522;28;20429;-76
2021/05/15 04:59:08;;;;;;;0.70;0.70;;;10.10;99.90;;;10.74;100.00;-13247.75;5056717;28;20572;-76
2021/05/15 05:01:34;;;;;;;0.70;0.50;;;10.20;99.90;;;10.70;100.00;-13681.56;5056454;28;20482;-76
2021/05/15 05:04:03;;;;;;;0.70;0.60;;;10.20;99.90;;;10.75;100.00;-14134.16;5055437;28;20537;-76
2021/05/15 05:06:30;;;;;;;0.70;0.60;;;10.20;99.90;;;10.82;100.00;-14180.50;5054542;28;20470;-76
2021/05/15 05:08:58;;;;;;;0.70;0.50;;;10.20;99.90;;;10.80;100.00;-14225.38;5056386;28;20963;-75
2021/05/15 05:11:24;;;;;;;0.70;0.57;;;10.20;99.90;;;10.80;100.00;-14230.47;5056533;28;20435;-76
2021/05/15 05:13:50;;;;;;;0.70;0.57;;;10.20;99.90;;;10.85;100.00;-14369.38;5055670;28;20423;-76
2021/05/15 05:16:17;;;;;;;0.70;0.50;;;10.20;99.90;;;10.85;100.00;-14464.72;5056607;28;20580;-76
2021/05/15 05:18:43;;;;;;;0.70;0.60;;;10.30;99.90;;;10.90;100.00;-14455.50;5054766;28;20540;-76
2021/05/15 05:21:11;;;;;;;0.70;0.60;;;10.30;99.90;;;10.95;100.00;-14458.78;5055950;28;20470;-76
2021/05/15 05:23:37;;;;;;;0.70;0.60;;;10.30;99.90;;;11.03;100.00;-14397.44;5056001;28;20810;-76
2021/05/15 05:26:04;;;;;;;0.70;0.60;;;10.40;99.90;;;11.03;100.00;-14216.63;5056375;28;20840;-76
2021/05/15 05:28:35;;;;;;;0.70;0.60;;;10.40;99.90;;;11.05;100.00;-14222.00;5054811;28;20462;-76
2021/05/15 05:31:04;;;;;;;0.70;0.50;;;10.40;99.90;;;11.10;100.00;-14192.69;5055382;28;20436;-76
2021/05/15 05:33:31;;;;;;;0.70;0.60;;;10.40;99.90;;;11.15;100.00;-13871.81;5054676;28;20546;-76
2021/05/15 05:35:58;;;;;;;0.70;0.60;;;10.50;99.90;;;11.29;100.00;-13549.91;5054153;28;20455;-76
2021/05/15 05:38:25;;;;;;;0.70;0.50;;;10.50;99.90;;;11.33;100.00;-13351.97;5047290;28;20463;-76
2021/05/15 05:40:51;;;;;;;0.70;0.60;;;10.50;99.90;;;11.27;100.00;-13004.25;5054555;28;20546;-76
2021/05/15 05:43:18;;;;;;;0.70;0.60;;;10.50;99.90;;;11.19;100.00;-12792.06;5055440;28;20439;-75
2021/05/15 05:45:45;;;;;;;0.70;0.60;;;10.50;99.90;;;11.22;100.00;-12480.81;5055632;28;20558;-75
2021/05/15 05:48:12;;;;;;;0.70;0.67;;;10.50;99.90;;;11.26;100.00;-12229.94;5055650;28;20500;-75
2021/05/15 05:50:38;;;;;;;0.70;0.60;;;10.50;99.90;;;11.26;100.00;-11913.16;5088057;28;20429;-75
2021/05/15 05:53:05;;;;;;;0.70;0.60;;;10.50;99.90;;;11.32;100.00;-11788.28;5053426;28;20500;-76
2021/05/15 05:55:32;;;;;;;0.70;0.57;;;10.60;99.90;;;11.40;100.00;-11512.53;5087186;28;20439;-75
2021/05/15 05:57:59;;;;;;;0.70;0.60;;;10.70;99.90;;;11.48;100.00;-11251.91;5055796;28;20423;-75
2021/05/15 06:00:26;;;;;;;0.70;0.60;;;10.70;99.90;;;11.60;100.00;-10971.56;5054897;28;20444;-75
2021/05/15 06:02:52;;;;;;;0.70;0.67;;;10.80;99.90;;;11.83;100.00;-10601.53;5088074;28;20511;-75
2021/05/15 06:05:19;;;;;;;0.70;0.60;;;10.80;99.90;;;11.86;100.00;-10672.28;5053758;28;20463;-75
2021/05/15 06:07:45;;;;;;;0.70;0.70;;;10.90;99.90;;;11.90;100.00;-10380.66;5053759;28;20559;-75
2021/05/15 06:10:12;;;;;;;0.70;0.60;;;11.10;99.90;;;12.21;100.00;-9965.53;5087190;28;20448;-76
2021/05/15 06:12:41;;;;;;;0.70;0.50;;;11.20;99.90;;;12.29;100.00;-10256.13;5057736;28;20415;-74
2021/05/15 06:15:09;;;;;;;0.70;0.70;;;11.20;99.90;;;12.39;100.00;-10541.75;5058057;28;20788;-74
2021/05/15 06:17:36;;;;;;;0.70;0.63;;;11.30;99.90;;;12.39;100.00;-11224.53;5053761;28;20545;-73
2021/05/15 06:20:06;;;;;;;0.70;0.70;;;11.30;99.90;;;12.24;100.00;-12527.28;5055061;28;20572;-74
2021/05/15 06:22:33;;;;;;;0.70;0.60;;;11.30;99.90;;;12.29;100.00;-13003.72;5063342;28;20450;-73
2021/05/15 06:24:59;;;;;;;0.70;0.60;;;11.30;99.90;;;12.54;100.00;-13646.97;5053198;28;20440;-74
2021/05/15 06:27:25;;;;;;;0.70;0.70;;;11.40;99.90;;;12.70;100.00;-14938.56;5055122;28;20820;-74
2021/05/15 06:29:54;;;;;;;0.70;0.70;;;11.40;99.90;;;12.62;100.00;-17362.84;5054240;28;20502;-74
2021/05/15 06:32:20;;;;;;;0.70;0.60;;;11.60;99.90;;;12.63;100.00;-18977.56;5086950;28;20445;-74
2021/05/15 06:34:46;;;;;;;0.70;0.60;;;11.70;99.90;;;13.09;100.00;-20628.59;5053520;28;20431;-74
2021/05/15 06:37:13;;;;;;;0.70;0.60;;;11.70;99.90;;;13.06;100.00;-21037.16;5046362;28;20469;-74
2021/05/15 06:39:39;;;;;;;0.70;0.70;;;11.80;99.90;;;13.19;100.00;-21040.47;5042772;28;20468;-74
2021/05/15 06:42:07;;;;;;;0.80;0.70;;;12.00;99.90;;;13.13;100.00;-21038.81;5054774;28;20444;-73
2021/05/15 06:44:34;;;;;;;0.70;0.60;;;12.00;99.90;;;13.14;100.00;-21039.09;5052477;28;20443;-74
2021/05/15 06:47:01;;;;;;;0.73;0.67;;;12.00;99.90;;;13.24;100.00;-21042.00;5053317;28;20844;-73
2021/05/15 06:49:28;;;;;;;0.80;0.70;;;12.10;99.90;;;13.51;100.00;-21049.31;5054687;28;20420;-73
2021/05/15 06:51:54;;;;;;;0.80;0.70;;;12.20;99.90;;;13.26;100.00;-21042.41;5047703;28;20443;-73
2021/05/15 06:54:23;;;;;;;0.73;0.67;;;12.30;99.90;;;13.22;100.00;-21041.44;5054675;28;20452;-74
2021/05/15 06:56:50;;;;;;;0.70;0.60;;;12.30;99.90;;;13.39;100.00;-21046.00;5053907;28;20443;-73
2021/05/15 06:59:16;;;;;;;0.70;0.60;;;12.30;99.90;;;13.33;100.00;-21044.34;5054481;28;20430;-74
2021/05/15 07:01:43;;;;;;;0.80;0.70;;;12.30;99.90;;;13.05;100.00;-21036.75;5054486;28;20441;-75
2021/05/15 07:04:12;;;;;;;0.80;0.70;;;12.20;99.90;;;13.38;100.00;-21045.72;5054101;28;20436;-75
2021/05/15 07:06:38;;;;;;;0.80;0.70;;;12.10;99.90;;;13.44;100.00;-21047.38;5054176;28;20969;-75
2021/05/15 07:09:05;;;;;;;0.80;0.70;;;12.10;99.90;;;13.37;100.00;-21045.44;5052422;28;20832;-74
2021/05/15 07:11:32;;;;;;;0.70;0.67;;;12.20;99.90;;;13.15;100.00;-21039.38;5086766;28;20921;-75
2021/05/15 07:13:58;;;;;;;0.70;0.60;;;12.10;99.90;;;12.88;100.00;-21032.19;5054809;28;20416;-74
2021/05/15 07:16:24;;;;;;;0.80;0.70;;;12.00;99.90;;;12.96;100.00;-21034.41;5054174;28;20470;-75
2021/05/15 07:18:51;;;;;;;0.70;0.60;;;12.10;99.90;;;12.88;100.00;-21032.19;5054278;28;20415;-73
2021/05/15 07:21:19;;;;;;;0.80;0.70;;;12.10;99.90;;;13.16;100.00;-21039.66;5052219;28;20447;-74
2021/05/15 07:23:45;;;;;;;0.70;0.70;;;12.30;99.90;;;13.19;100.00;-21040.47;5053950;28;20818;-72
2021/05/15 07:26:12;;;;;;;0.80;0.77;;;12.20;99.90;;;13.20;100.00;-21040.88;5053296;28;20574;-72
2021/05/15 07:28:39;;;;;;;0.70;0.60;;;12.30;99.90;;;13.34;100.00;-21044.63;5053523;28;20427;-71
2021/05/15 07:31:05;;;;;;;0.70;0.70;;;12.40;99.90;;;13.41;100.00;-21046.53;5046706;28;20803;-74
2021/05/15 07:33:32;;;;;;;0.70;0.70;;;12.50;99.90;;;13.76;100.00;-21056.06;5053727;28;20499;-72
2021/05/15 07:35:59;;;;;;;0.70;0.60;;;12.60;99.90;;;14.15;100.00;-21066.38;5053580;28;20432;-72
2021/05/15 07:38:26;;;;;;;0.70;0.70;;;12.60;99.90;;;14.16;100.00;-21066.66;5053652;28;20444;-73
2021/05/15 07:40:54;;;;;;;0.80;0.70;;;12.70;99.90;;;14.37;100.00;-21072.44;5054051;28;20422;-72
2021/05/15 07:43:26;;;;;;;0.70;0.60;;;12.80;99.90;;;14.29;100.00;-21070.09;5085261;28;20468;-72
2021/05/15 07:45:54;;;;;;;0.70;0.60;;;13.10;99.90;;;14.78;100.00;-21083.47;5052868;28;20509;-71
2021/05/15 07:48:28;;;;;;;0.73;0.70;;;13.40;99.90;;;14.71;100.00;-21081.53;5054006;28;20427;-73
2021/05/15 07:50:55;;;;;;;0.70;0.60;;;13.70;99.90;;;15.49;100.00;-21102.44;5053003;28;20771;-72
2021/05/15 07:53:23;;;;;;;0.80;0.70;;;13.90;99.90;;;15.79;100.00;-21110.69;5085811;28;20495;-74
2021/05/15 07:55:50;;;;;;;0.80;0.70;;;14.30;99.90;;;15.88;100.00;-21113.16;5053441;28;20460;-73
2021/05/15 07:58:17;;;;;;;0.80;0.70;;;14.70;99.90;;;15.75;100.00;-21109.59;5053366;28;20489;-74
2021/05/15 08:00:45;;;;;;;0.70;0.60;;;14.40;99.90;;;16.05;100.00;-21117.69;5049555;28;20475;-74
2021/05/15 08:03:12;;;;;;;0.70;0.70;;;14.30;99.90;;;15.88;100.00;-21113.03;5053407;28;21021;-72
2021/05/15 08:05:39;;;;;;;0.70;0.63;;;14.30;99.90;;;15.89;100.00;-21113.44;5035437;28;20500;-72
2021/05/15 08:08:09;;;;;;;0.70;0.60;;;14.40;99.90;;;15.88;100.00;-21113.16;5051513;28;20464;-73
2021/05/15 08:10:36;;;;;;;0.80;0.70;;;14.40;99.90;;;15.63;100.00;-21106.28;5085920;28;20580;-72
2021/05/15 08:13:03;;;;;;;0.80;0.70;;;14.30;99.90;;;15.85;100.00;-21112.34;5052353;28;20436;-72
2021/05/15 08:15:30;;;;;;;0.80;0.70;;;14.10;99.90;;;16.62;100.00;-21132.94;5052770;28;20439;-71
2021/05/15 08:18:00;;;;;;;0.80;0.70;;;14.80;99.90;;;16.37;100.00;-21126.22;5051787;28;20451;-73
2021/05/15 08:20:28;;;;;;;0.70;0.60;;;15.40;99.90;;;16.89;100.00;-21140.34;5053643;28;20746;-72
2021/05/15 08:22:55;;;;;;;0.70;0.70;;;15.50;99.90;;;17.62;100.00;-21159.81;5053008;28;20452;-73
2021/05/15 08:25:25;;;;;;;0.80;0.60;;;15.70;99.90;;;17.58;100.00;-21158.72;5033919;28;20472;-75
2021/05/15 08:27:53;;;;;;;0.70;0.60;;;15.70;99.90;;;16.95;100.00;-21141.88;5042943;28;20555;-73
2021/05/15 08:30:27;;;;;;;0.70;0.60;;;15.20;99.90;;;16.62;100.00;-21132.94;5053731;28;20768;-73
2021/05/15 08:32:56;;;;;;;0.73;0.60;;;14.80;99.90;;;16.43;100.00;-21127.88;5052997;28;20431;-73
2021/05/15 08:35:24;;;;;;;0.70;0.70;;;14.90;99.90;;;15.77;100.00;-21110.13;5052534;28;20436;-73
2021/05/15 08:37:51;;;;;;;0.80;0.60;;;14.60;99.90;;;15.76;100.00;-21109.88;5052894;28;20509;-73
2021/05/15 08:40:19;;;;;;;0.70;0.60;;;14.60;99.90;;;15.63;100.00;-21106.44;5053395;28;20481;-73
2021/05/15 08:42:47;;;;;;;0.80;0.70;;;14.80;99.90;;;16.63;100.00;-21133.22;5052312;28;20537;-73
2021/05/15 08:45:16;;;;;;;0.80;0.70;;;14.80;99.90;;;16.13;100.00;-21119.91;5053010;28;20459;-73
2021/05/15 08:47:45;;;;;;;0.80;0.70;;;15.20;99.90;;;16.76;100.00;-21136.78;5052515;28;20462;-73
2021/05/15 08:50:14;;;;;;;0.70;0.60;;;15.30;99.90;;;17.67;100.00;-21161.19;5052793;28;20531;-73
2021/05/15 08:52:43;;;;;;;0.80;0.73;;;15.50;99.90;;;18.08;100.00;-21172.16;5053300;28;20456;-73
2021/05/15 08:55:13;;;;;;;0.80;0.60;;;16.10;99.90;;;18.77;100.00;-21190.78;5053164;28;20439;-73
2021/05/15 08:57:40;;;;;;;0.70;0.60;;;16.10;99.90;;;17.84;100.00;-21165.88;5052619;28;20436;-75
2021/05/15 09:00:12;;;;;;;0.70;0.60;;;15.60;99.90;;;19.24;100.00;-21203.38;5052901;28;20481;-73
2021/05/15 09:02:39;;;;;;;0.70;0.60;;;15.80;99.90;;;20.66;100.00;-21241.38;5052729;28;20439;-73
2021/05/15 09:05:15;;;;;;;0.80;0.60;;;16.40;99.90;;;20.71;100.00;-21242.59;5050425;28;20940;-73
2021/05/15 09:07:50;;;;;;;0.83;0.80;;;16.90;99.90;;;20.07;100.00;-21225.53;5053428;28;20486;-73
2021/05/15 09:10:20;;;;;;;0.77;0.67;;;16.80;99.90;;;18.76;100.00;-21190.53;5055452;28;20398;-75
2021/05/15 09:13:07;;;;;;;0.70;0.60;;;16.50;99.90;;;17.61;100.00;-21159.56;5056716;28;20424;-74
2021/05/15 09:15:41;;;;;;;0.80;0.70;;;16.00;99.90;;;16.88;100.00;-21140.06;5044559;28;20526;-73
2021/05/15 09:18:09;;;;;;;0.80;0.70;;;15.50;99.90;;;17.19;100.00;-21148.31;5055111;28;20386;-73
2021/05/15 09:20:38;;;;;;;0.70;0.60;;;15.00;99.90;;;16.93;100.00;-21141.31;5056152;28;20424;-73
2021/05/15 09:23:18;;;;;;;0.80;0.70;;;14.50;99.90;;;15.88;100.00;-21113.16;5071140;28;20912;-73
2021/05/15 09:26:00;;;;;;;0.80;0.60;;;14.20;99.90;;;14.87;100.00;-21085.78;5055215;28;20886;-73
2021/05/15 09:28:38;;;;;;;0.70;0.60;;;14.10;99.90;;;14.56;100.00;-21077.41;5047863;28;21015;-73
2021/05/15 09:31:19;;;;;;;0.80;0.70;;;14.00;99.90;;;14.19;100.00;-21067.50;5056094;28;20414;-74
2021/05/15 09:33:50;;;;;;;0.70;0.60;;;13.50;99.90;;;13.48;100.00;-21048.47;5056343;28;20419;-73
2021/05/15 09:36:22;;;;;;;0.80;0.60;;;12.80;99.90;;;12.66;100.00;-21026.13;5056114;28;20435;-75
2021/05/15 09:39:10;;;;;;;0.70;0.60;;;12.00;99.90;;;12.26;100.00;-21015.50;5055735;28;20955;-74
2021/05/15 09:41:43;;;;;;;0.70;0.60;;;11.50;99.90;;;12.30;100.00;-21016.47;5055216;28;20771;-74
2021/05/15 09:44:14;;;;;;;0.70;0.60;;;11.50;99.90;;;12.26;100.00;-21015.50;5055800;28;20416;-74
2021/05/15 09:46:43;;;;;;;0.70;0.60;;;11.40;99.90;;;12.35;100.00;-21017.84;5055603;28;20476;-75
2021/05/15 09:49:12;;;;;;;0.70;0.60;;;11.50;99.90;;;12.80;100.00;-21030.00;5054454;28;20440;-75
2021/05/15 09:51:51;;;;;;;0.80;0.70;;;11.80;99.90;;;13.01;100.00;-21035.78;5054510;28;20432;-75
2021/05/15 09:54:22;;;;;;;0.80;0.70;;;12.20;99.90;;;13.72;100.00;-21054.81;5056170;28;20447;-75
2021/05/15 09:56:58;;;;;;;0.70;0.60;;;12.80;99.90;;;14.28;100.00;-21069.97;5055876;28;20447;-76
2021/05/15 09:59:30;;;;;;;0.73;0.67;;;13.30;99.90;;;14.44;100.00;-21074.22;5052706;28;20447;-75
2021/05/15 10:01:59;;;;;;;0.80;0.60;;;13.40;99.90;;;14.49;100.00;-21075.59;5054000;28;20832;-75
2021/05/15 10:04:28;;;;;;;0.73;0.63;;;13.30;99.90;;;14.12;100.00;-21065.69;5054637;28;20842;-75
2021/05/15 10:06:57;;;;;;;0.80;0.70;;;13.10;99.90;;;13.34;100.00;-21044.63;5049537;28;20465;-75
2021/05/15 10:09:31;;;;;;;0.70;0.60;;;12.80;99.90;;;12.07;100.00;-21010.41;5050919;28;20824;-74
2021/05/15 10:12:02;;;;;;;0.87;0.87;;;11.80;99.90;;;11.40;100.00;-20992.16;5050737;28;20866;-72